Time;durP1;ratioP1;P1;durP2;ratioP2;P2;SDS_P1;SDS_P2;PMS_P1;PMS_P2;Temp;Humidity;BMP_temperature;BMP_pressure;BME280_temperature;BME280_humidity;BME280_pressure;Samples;Min_cycle;Max_cycle;Signal;HPM_P1;HPM_P2
2021/03/31 00:00:48;;;;;;;16.30;14.87;;;10.70;99.90;;;;;;4963811;28;20456;-68
2021/03/31 00:03:17;;;;;;;17.10;15.53;;;10.60;99.90;;;;;;4962314;28;20448;-69
2021/03/31 00:05:43;;;;;;;17.23;14.90;;;10.50;99.90;;;;;;4962797;28;20461;-68
2021/03/31 00:08:10;;;;;;;21.33;16.20;;;10.40;99.90;;;;;;4963673;28;20448;-68
2021/03/31 00:10:42;;;;;;;17.37;15.77;;;10.40;99.90;;;;;;4962391;28;20448;-69
2021/03/31 00:13:09;;;;;;;17.43;16.07;;;10.40;99.90;;;;;;4961781;28;20463;-69
2021/03/31 00:15:36;;;;;;;17.77;15.97;;;10.30;99.90;;;;;;4963751;28;20732;-68
2021/03/31 00:18:06;;;;;;;17.37;15.90;;;10.30;99.90;;;;;;4962111;28;20831;-69
2021/03/31 00:20:33;;;;;;;16.70;15.20;;;10.30;99.90;;;;;;4960754;28;20440;-69
2021/03/31 00:22:59;;;;;;;21.30;15.70;;;10.30;99.90;;;;;;4961995;28;21016;-69
2021/03/31 00:25:26;;;;;;;18.77;16.87;;;10.20;99.90;;;;;;4962425;28;20515;-68
2021/03/31 00:27:52;;;;;;;22.40;16.57;;;10.10;99.90;;;;;;4960540;28;20989;-68
2021/03/31 00:30:19;;;;;;;30.93;16.43;;;10.10;99.90;;;;;;4961949;28;20455;-68
2021/03/31 00:32:45;;;;;;;22.10;17.00;;;10.10;99.90;;;;;;4962230;28;20445;-68
2021/03/31 00:35:13;;;;;;;21.93;16.50;;;10.00;99.90;;;;;;4960832;28;20441;-69
2021/03/31 00:37:39;;;;;;;23.80;18.20;;;10.00;99.90;;;;;;4961743;28;20478;-69
2021/03/31 00:40:08;;;;;;;30.67;16.97;;;10.00;99.90;;;;;;4962280;28;20504;-69
2021/03/31 00:42:35;;;;;;;17.77;16.07;;;9.90;99.90;;;;;;4960419;28;20544;-69
2021/03/31 00:45:01;;;;;;;16.83;15.33;;;9.90;99.90;;;;;;4961586;28;21004;-69
2021/03/31 00:47:28;;;;;;;17.00;15.60;;;9.90;99.90;;;;;;4961473;28;20955;-68
2021/03/31 00:49:54;;;;;;;15.93;14.53;;;9.90;99.90;;;;;;4960409;28;20463;-69
2021/03/31 00:52:21;;;;;;;16.13;14.57;;;9.90;99.90;;;;;;4961458;28;20894;-69
2021/03/31 00:54:48;;;;;;;15.60;14.20;;;9.80;99.90;;;;;;4961854;28;20446;-69
2021/03/31 00:57:14;;;;;;;16.40;14.87;;;9.80;99.90;;;;;;4960561;28;20455;-68
2021/03/31 00:59:40;;;;;;;16.97;15.47;;;9.70;99.90;;;;;;4961462;28;20444;-68
2021/03/31 01:02:06;;;;;;;15.90;14.47;;;9.60;99.90;;;;;;4961666;28;20487;-69
2021/03/31 01:04:32;;;;;;;17.83;15.93;;;9.60;99.90;;;;;;4960039;28;20456;-69
2021/03/31 01:06:59;;;;;;;17.93;16.30;;;9.60;99.90;;;;;;4961584;28;20566;-69
2021/03/31 01:09:27;;;;;;;17.93;16.50;;;9.60;99.90;;;;;;4962039;28;20467;-69
2021/03/31 01:12:04;;;;;;;17.00;15.50;;;9.60;99.90;;;;;;4960097;28;20452;-69
2021/03/31 01:14:43;;;;;;;17.20;15.90;;;9.60;99.90;;;;;;4959507;28;20453;-69
2021/03/31 01:17:15;;;;;;;16.60;15.20;;;9.60;99.90;;;;;;4940976;28;557776;-68
2021/03/31 01:20:05;;;;;;;17.93;16.53;;;9.60;99.90;;;;;;4961842;28;20452;-69
2021/03/31 01:23:19;;;;;;;15.83;14.40;;;9.50;99.90;;;;;;4962750;28;20851;-69
2021/03/31 01:25:51;;;;;;;16.13;14.73;;;9.50;99.90;;;;;;4936142;28;20564;-69
2021/03/31 01:28:50;;;;;;;16.80;15.00;;;9.40;99.90;;;;;;4961025;28;20445;-69
2021/03/31 01:31:32;;;;;;;18.00;16.70;;;9.30;99.90;;;;;;4960810;28;20867;-69
2021/03/31 01:34:30;;;;;;;17.10;15.60;;;9.20;99.90;;;;;;4961162;28;20508;-69
2021/03/31 01:37:00;;;;;;;17.70;15.87;;;9.10;99.90;;;;;;4960812;28;20452;-68
2021/03/31 01:39:27;;;;;;;17.30;15.90;;;9.10;99.90;;;;;;4960962;28;20456;-68
2021/03/31 01:41:56;;;;;;;18.20;16.40;;;9.10;99.90;;;;;;4962320;28;20787;-68
2021/03/31 01:44:25;;;;;;;18.77;16.97;;;9.00;99.90;;;;;;4961462;28;20456;-67
2021/03/31 01:46:54;;;;;;;17.47;15.97;;;9.00;99.90;;;;;;4960095;28;20460;-67
2021/03/31 01:49:25;;;;;;;18.87;17.10;;;8.90;99.90;;;;;;4961308;28;20805;-68
2021/03/31 01:51:55;;;;;;;17.40;16.10;;;8.90;99.90;;;;;;4962445;28;20491;-68
2021/03/31 01:54:22;;;;;;;20.03;17.97;;;8.90;99.90;;;;;;4961058;28;20832;-68
2021/03/31 01:56:49;;;;;;;18.83;16.93;;;8.80;99.90;;;;;;4960262;28;20455;-68
2021/03/31 01:59:18;;;;;;;19.87;17.30;;;8.80;99.90;;;;;;4960190;28;20471;-68
2021/03/31 02:01:46;;;;;;;19.73;18.03;;;8.80;99.90;;;;;;4960723;28;21027;-68
2021/03/31 02:04:13;;;;;;;18.63;16.87;;;8.80;99.90;;;;;;4962377;28;20447;-68
2021/03/31 02:06:41;;;;;;;17.30;15.93;;;8.80;99.90;;;;;;4960834;28;20448;-68
2021/03/31 02:09:08;;;;;;;18.97;17.20;;;8.80;99.90;;;;;;4960161;28;20448;-68
2021/03/31 02:11:35;;;;;;;18.30;16.50;;;8.80;99.90;;;;;;4961891;28;20439;-68
2021/03/31 02:14:02;;;;;;;17.80;16.00;;;8.80;99.90;;;;;;4961068;28;20453;-68
2021/03/31 02:16:32;;;;;;;16.13;14.60;;;8.70;99.90;;;;;;4960205;28;20459;-69
2021/03/31 02:18:59;;;;;;;17.30;15.73;;;8.70;99.90;;;;;;4960756;28;20454;-68
2021/03/31 02:21:26;;;;;;;17.53;15.80;;;8.70;99.90;;;;;;4960450;28;20443;-69
2021/03/31 02:23:54;;;;;;;20.23;16.00;;;8.70;99.90;;;;;;4961782;28;20440;-68
2021/03/31 02:26:23;;;;;;;17.03;15.80;;;8.70;99.90;;;;;;4960518;28;21109;-68
2021/03/31 02:28:50;;;;;;;17.27;15.60;;;8.60;99.90;;;;;;4960002;28;20445;-68
2021/03/31 02:31:17;;;;;;;18.80;17.10;;;8.60;99.90;;;;;;4961743;28;20490;-68
2021/03/31 02:33:45;;;;;;;18.53;17.00;;;8.60;99.90;;;;;;4960984;28;20444;-68
2021/03/31 02:36:12;;;;;;;19.03;17.03;;;8.50;99.90;;;;;;4959595;28;20460;-68
2021/03/31 02:38:39;;;;;;;17.97;16.57;;;8.50;99.90;;;;;;4961701;28;20452;-68
2021/03/31 02:41:06;;;;;;;17.97;16.47;;;8.50;99.90;;;;;;4961190;28;20444;-68
2021/03/31 02:43:36;;;;;;;19.93;17.90;;;8.50;99.90;;;;;;4960066;28;20455;-69
2021/03/31 02:46:04;;;;;;;18.90;17.50;;;8.50;99.90;;;;;;4960729;28;20855;-69
2021/03/31 02:48:31;;;;;;;17.37;15.50;;;8.40;99.90;;;;;;4961786;28;20804;-69
2021/03/31 02:50:59;;;;;;;16.47;15.23;;;8.40;99.90;;;;;;4960090;28;20456;-69
2021/03/31 02:53:26;;;;;;;18.00;16.33;;;8.40;99.90;;;;;;4960646;28;20447;-68
2021/03/31 02:55:54;;;;;;;17.83;16.37;;;8.40;99.90;;;;;;4961719;28;20862;-68
2021/03/31 02:58:22;;;;;;;19.13;17.30;;;8.40;99.90;;;;;;4960058;28;20452;-67
2021/03/31 03:00:49;;;;;;;18.03;16.23;;;8.30;99.90;;;;;;4959725;28;20961;-68
2021/03/31 03:03:15;;;;;;;17.80;16.20;;;8.30;99.90;;;;;;4962007;28;20781;-69
2021/03/31 03:05:42;;;;;;;17.90;15.90;;;8.30;99.90;;;;;;4960506;28;20458;-67
2021/03/31 03:08:08;;;;;;;17.60;16.10;;;8.20;99.90;;;;;;4959935;28;20451;-68
2021/03/31 03:10:35;;;;;;;19.40;17.80;;;8.20;99.90;;;;;;4963399;28;20450;-68
2021/03/31 03:13:03;;;;;;;18.23;16.53;;;8.10;99.90;;;;;;4963970;28;20845;-68
2021/03/31 03:15:32;;;;;;;18.67;16.73;;;8.10;99.90;;;;;;4963197;28;20502;-69
2021/03/31 03:17:58;;;;;;;19.83;18.17;;;8.10;99.90;;;;;;4963329;28;20839;-68
2021/03/31 03:20:26;;;;;;;16.80;15.30;;;8.10;99.90;;;;;;4963623;28;20525;-67
2021/03/31 03:22:54;;;;;;;20.40;18.40;;;8.00;99.90;;;;;;4964490;28;20444;-68
2021/03/31 03:25:25;;;;;;;17.43;16.03;;;8.10;99.90;;;;;;4963436;28;20460;-68
2021/03/31 03:27:52;;;;;;;18.17;16.77;;;8.00;99.90;;;;;;4962901;28;20700;-67
2021/03/31 03:30:21;;;;;;;17.97;16.57;;;8.00;99.90;;;;;;4962980;28;20457;-69
2021/03/31 03:32:50;;;;;;;17.87;16.13;;;8.00;99.90;;;;;;4962786;28;21150;-69
2021/03/31 03:35:18;;;;;;;16.90;15.10;;;8.00;99.90;;;;;;4964690;28;20444;-68
2021/03/31 03:37:45;;;;;;;31.13;17.00;;;8.00;99.90;;;;;;4963854;28;20440;-68
2021/03/31 03:40:13;;;;;;;17.50;15.97;;;8.00;99.90;;;;;;4962846;28;20466;-69
2021/03/31 03:42:39;;;;;;;18.37;16.47;;;8.00;99.90;;;;;;4962527;28;20976;-68
2021/03/31 03:45:07;;;;;;;17.63;16.13;;;8.00;99.90;;;;;;4963476;28;20448;-68
2021/03/31 03:47:35;;;;;;;19.40;17.40;;;8.00;99.90;;;;;;4963990;28;20440;-67
2021/03/31 03:50:06;;;;;;;17.17;15.87;;;8.00;99.90;;;;;;4963143;28;20495;-69
2021/03/31 03:52:33;;;;;;;20.10;18.07;;;7.90;99.90;;;;;;4961808;28;20476;-68
2021/03/31 03:54:59;;;;;;;18.97;17.13;;;7.90;99.90;;;;;;4963955;28;20454;-68
2021/03/31 03:57:26;;;;;;;17.03;15.33;;;7.90;99.90;;;;;;4963884;28;20457;-68
2021/03/31 03:59:53;;;;;;;18.27;16.50;;;7.90;99.90;;;;;;4961833;28;20452;-68
2021/03/31 04:02:19;;;;;;;17.00;15.60;;;7.90;99.90;;;;;;4963538;28;20452;-68
2021/03/31 04:04:45;;;;;;;17.80;16.50;;;7.90;99.90;;;;;;4963222;28;20452;-68
2021/03/31 04:07:12;;;;;;;18.80;17.10;;;7.80;99.90;;;;;;4962144;28;20447;-68
2021/03/31 04:09:40;;;;;;;17.30;15.90;;;7.80;99.90;;;;;;4962277;28;20453;-68
2021/03/31 04:12:09;;;;;;;18.47;16.67;;;7.80;99.90;;;;;;4962749;28;20487;-68
2021/03/31 04:14:37;;;;;;;19.23;16.90;;;7.90;99.90;;;;;;4963952;28;20605;-68
2021/03/31 04:17:05;;;;;;;18.90;17.10;;;7.80;99.90;;;;;;4962406;28;20484;-69
2021/03/31 04:19:32;;;;;;;16.10;14.70;;;7.80;99.90;;;;;;4961698;28;20452;-69
2021/03/31 04:21:59;;;;;;;17.93;16.13;;;7.80;99.90;;;;;;4960886;28;20439;-68
2021/03/31 04:24:26;;;;;;;18.60;15.70;;;7.80;99.90;;;;;;4962650;28;20452;-70
2021/03/31 04:26:54;;;;;;;17.40;16.07;;;7.70;99.90;;;;;;4963504;28;21802;-69
2021/03/31 04:29:21;;;;;;;15.83;14.63;;;7.70;99.90;;;;;;4961915;28;20459;-69
2021/03/31 04:31:47;;;;;;;17.23;15.77;;;7.60;99.90;;;;;;4961725;28;20495;-68
2021/03/31 04:34:14;;;;;;;16.40;14.90;;;7.60;99.90;;;;;;4963585;28;20444;-69
2021/03/31 04:36:42;;;;;;;17.70;16.30;;;7.60;99.90;;;;;;4961951;28;20453;-68
2021/03/31 04:39:09;;;;;;;20.13;18.47;;;7.60;99.90;;;;;;4962119;28;20444;-69
2021/03/31 04:41:36;;;;;;;16.60;14.90;;;7.60;99.90;;;;;;4963045;28;20450;-69
2021/03/31 04:44:03;;;;;;;17.60;15.80;;;7.60;99.90;;;;;;4961845;28;20460;-68
2021/03/31 04:46:29;;;;;;;17.57;16.23;;;7.60;99.90;;;;;;4961669;28;20459;-68
2021/03/31 04:48:55;;;;;;;17.03;15.63;;;7.60;99.90;;;;;;4963104;28;20454;-69
2021/03/31 04:51:22;;;;;;;15.83;14.27;;;7.60;99.90;;;;;;4961742;28;20457;-67
2021/03/31 04:53:48;;;;;;;16.10;14.60;;;7.60;99.90;;;;;;4961302;28;20448;-67
2021/03/31 04:56:14;;;;;;;16.57;14.67;;;7.60;99.90;;;;;;4963102;28;20458;-67
2021/03/31 04:58:41;;;;;;;17.37;15.37;;;7.60;99.90;;;;;;4961625;28;20449;-67
2021/03/31 05:01:07;;;;;;;16.10;14.57;;;7.50;99.90;;;;;;4961716;28;20440;-67
2021/03/31 05:03:33;;;;;;;17.23;15.70;;;7.50;99.90;;;;;;4962845;28;20443;-67
2021/03/31 05:06:00;;;;;;;15.93;14.47;;;7.50;99.90;;;;;;4961325;28;20449;-67
2021/03/31 05:08:26;;;;;;;18.20;16.70;;;7.50;99.90;;;;;;4961715;28;20456;-68
2021/03/31 05:10:52;;;;;;;19.57;16.53;;;7.60;99.90;;;;;;4962923;28;20448;-68
2021/03/31 05:13:19;;;;;;;18.83;16.43;;;7.60;99.90;;;;;;4960873;28;20496;-68
2021/03/31 05:15:46;;;;;;;19.13;17.03;;;7.60;99.90;;;;;;4961864;28;20468;-68
2021/03/31 05:18:12;;;;;;;18.27;16.67;;;7.60;99.90;;;;;;4962469;28;21021;-68
2021/03/31 05:20:38;;;;;;;17.80;16.40;;;7.60;99.90;;;;;;4960714;28;20461;-68
2021/03/31 05:23:04;;;;;;;16.83;15.23;;;7.60;99.90;;;;;;4961495;28;20479;-69
2021/03/31 05:25:31;;;;;;;25.73;23.50;;;7.60;99.90;;;;;;4962396;28;20829;-68
2021/03/31 05:27:58;;;;;;;25.17;23.07;;;7.60;99.90;;;;;;4960886;28;20808;-69
2021/03/31 05:30:25;;;;;;;23.80;21.60;;;7.60;99.90;;;;;;4961531;28;20443;-69
2021/03/31 05:32:52;;;;;;;20.53;18.63;;;7.60;99.90;;;;;;4961570;28;20845;-69
2021/03/31 05:35:18;;;;;;;19.97;18.30;;;7.60;99.90;;;;;;4962402;28;20451;-69
2021/03/31 05:37:45;;;;;;;16.80;15.40;;;7.60;99.90;;;;;;4961454;28;20456;-69
2021/03/31 05:40:11;;;;;;;21.17;17.00;;;7.60;99.90;;;;;;4960641;28;20498;-69
2021/03/31 05:42:38;;;;;;;16.90;15.40;;;7.60;99.90;;;;;;4962354;28;20448;-69
2021/03/31 05:45:07;;;;;;;15.47;14.20;;;7.60;99.90;;;;;;4960821;28;20544;-69
2021/03/31 05:47:37;;;;;;;18.40;16.70;;;7.60;99.90;;;;;;4960286;28;20488;-69
2021/03/31 05:50:06;;;;;;;20.73;16.93;;;7.60;99.90;;;;;;4961368;28;20794;-69
2021/03/31 05:52:32;;;;;;;19.73;17.67;;;7.70;99.90;;;;;;4961790;28;20484;-70
2021/03/31 05:55:01;;;;;;;18.13;15.50;;;7.70;99.90;;;;;;4960549;28;20504;-68
2021/03/31 05:57:31;;;;;;;15.73;14.53;;;7.90;99.90;;;;;;4943727;28;20506;-68
2021/03/31 05:59:57;;;;;;;17.53;16.03;;;8.20;99.90;;;;;;4962017;28;20950;-69
2021/03/31 06:02:24;;;;;;;18.50;16.80;;;8.50;99.90;;;;;;4960756;28;20469;-68
2021/03/31 06:04:52;;;;;;;18.03;16.53;;;8.70;99.90;;;;;;4960426;28;20499;-69
2021/03/31 06:07:19;;;;;;;16.27;15.10;;;8.80;99.90;;;;;;4961810;28;20448;-68
2021/03/31 06:10:05;;;;;;;18.07;16.53;;;9.00;99.90;;;;;;4960943;28;20452;-68
2021/03/31 06:12:32;;;;;;;16.20;14.67;;;9.10;99.90;;;;;;4961360;28;20492;-68
2021/03/31 06:15:10;;;;;;;18.37;16.83;;;9.30;99.90;;;;;;4959850;28;20872;-68
2021/03/31 06:17:45;;;;;;;19.20;17.00;;;9.40;99.90;;;;;;4959785;28;20750;-68
2021/03/31 06:20:12;;;;;;;15.27;14.07;;;9.40;99.90;;;;;;4960271;28;20454;-69
2021/03/31 06:22:51;;;;;;;16.70;15.20;;;9.50;99.90;;;;;;4961907;28;20444;-69
2021/03/31 06:25:20;;;;;;;18.07;16.47;;;9.50;99.90;;;;;;4971183;28;20495;-68
2021/03/31 06:27:52;;;;;;;15.80;14.70;;;9.70;99.90;;;;;;4971316;28;20456;-67
2021/03/31 06:30:23;;;;;;;15.97;14.90;;;9.90;99.90;;;;;;4971828;28;20448;-67
2021/03/31 06:32:51;;;;;;;17.67;15.87;;;10.10;99.90;;;;;;4971374;28;20495;-68
2021/03/31 06:35:20;;;;;;;17.63;16.43;;;10.50;99.90;;;;;;4971139;28;20463;-68
2021/03/31 06:37:47;;;;;;;17.07;15.87;;;10.80;99.90;;;;;;4971649;28;20460;-68
2021/03/31 06:40:29;;;;;;;16.77;15.47;;;11.10;99.90;;;;;;4971651;28;20554;-69
2021/03/31 06:43:07;;;;;;;15.93;14.83;;;11.30;99.90;;;;;;4971332;28;20455;-69
2021/03/31 06:45:36;;;;;;;15.80;14.63;;;11.50;99.90;;;;;;4973834;28;20462;-67
2021/03/31 06:48:05;;;;;;;16.20;14.93;;;11.40;99.90;;;;;;4975156;28;20464;-67
2021/03/31 06:50:36;;;;;;;15.03;14.03;;;11.20;99.90;;;;;;4974896;28;20937;-69
2021/03/31 06:53:05;;;;;;;17.03;15.60;;;11.20;99.90;;;;;;4975082;28;20538;-68
2021/03/31 06:55:32;;;;;;;17.57;16.07;;;11.30;99.90;;;;;;4975032;28;20459;-68
2021/03/31 06:58:00;;;;;;;17.07;15.60;;;11.50;99.90;;;;;;4975310;28;20518;-68
2021/03/31 07:00:29;;;;;;;17.30;16.17;;;11.40;99.90;;;;;;4974976;28;20483;-68
2021/03/31 07:03:00;;;;;;;18.10;16.60;;;11.30;99.90;;;;;;4974992;28;20830;-67
2021/03/31 07:05:29;;;;;;;17.80;16.30;;;11.20;99.90;;;;;;4975054;28;20465;-68
2021/03/31 07:08:03;;;;;;;18.17;16.77;;;11.10;99.90;;;;;;4974816;28;20479;-68
2021/03/31 07:10:40;;;;;;;16.10;14.87;;;11.10;99.90;;;;;;4974845;28;20458;-68
2021/03/31 07:13:06;;;;;;;17.70;15.83;;;11.20;99.90;;;;;;4974635;28;20494;-67
2021/03/31 07:15:33;;;;;;;18.17;16.07;;;11.40;99.90;;;;;;4974674;28;20536;-68
2021/03/31 07:18:01;;;;;;;18.27;16.90;;;11.70;99.90;;;;;;4974700;28;20483;-68
2021/03/31 07:20:29;;;;;;;21.17;16.70;;;11.90;99.90;;;;;;4974951;28;20475;-70
2021/03/31 07:22:58;;;;;;;17.53;16.23;;;12.10;99.80;;;;;;4974383;28;20475;-71
2021/03/31 07:25:25;;;;;;;17.10;15.67;;;12.30;98.90;;;;;;4974451;28;20462;-72
2021/03/31 07:27:55;;;;;;;16.97;15.73;;;12.80;98.50;;;;;;4974416;28;20456;-72
2021/03/31 07:30:24;;;;;;;16.50;15.30;;;13.10;97.60;;;;;;4974424;28;20808;-72
2021/03/31 07:32:53;;;;;;;16.30;15.10;;;13.50;96.80;;;;;;4971797;28;20558;-72
2021/03/31 07:35:21;;;;;;;19.00;17.40;;;13.80;96.20;;;;;;4973918;28;20892;-72
2021/03/31 07:37:48;;;;;;;18.00;16.57;;;13.80;95.90;;;;;;4973902;28;20478;-72
2021/03/31 07:40:16;;;;;;;17.40;16.20;;;14.10;95.40;;;;;;4974026;28;20455;-72
2021/03/31 07:42:48;;;;;;;17.90;16.50;;;14.40;94.60;;;;;;4973886;28;20820;-72
2021/03/31 07:45:16;;;;;;;21.47;17.90;;;14.90;93.90;;;;;;4973550;28;20487;-72
2021/03/31 07:47:45;;;;;;;17.90;16.60;;;15.50;92.90;;;;;;4974002;28;20459;-72
2021/03/31 07:50:12;;;;;;;18.70;17.13;;;16.00;91.90;;;;;;4973885;28;20458;-73
2021/03/31 07:52:49;;;;;;;19.30;17.70;;;16.10;91.60;;;;;;4970338;28;20485;-73
2021/03/31 07:55:34;;;;;;;18.87;17.27;;;16.30;90.80;;;;;;4953928;28;20456;-72
2021/03/31 07:58:25;;;;;;;18.57;16.97;;;16.10;91.10;;;;;;4954530;29;20456;-72
2021/03/31 08:01:08;;;;;;;17.70;16.27;;;16.00;91.20;;;;;;4954391;29;20554;-72
2021/03/31 08:03:36;;;;;;;19.53;17.80;;;16.10;90.90;;;;;;4954255;29;20512;-73
2021/03/31 08:06:11;;;;;;;18.63;17.13;;;16.60;90.30;;;;;;4954225;29;20822;-72
2021/03/31 08:08:54;;;;;;;16.17;15.17;;;16.60;89.80;;;;;;4953928;29;20467;-72
2021/03/31 08:11:55;;;;;;;19.10;17.70;;;16.50;90.00;;;;;;4954298;29;20519;-73
2021/03/31 08:14:49;;;;;;;20.00;18.60;;;16.60;89.80;;;;;;4954112;29;20464;-73
2021/03/31 08:17:17;;;;;;;18.60;16.80;;;17.10;88.50;;;;;;4908826;29;20858;-73
2021/03/31 08:19:46;;;;;;;20.80;18.90;;;17.30;86.60;;;;;;4953994;29;20453;-73
2021/03/31 08:22:24;;;;;;;18.17;16.93;;;17.00;86.80;;;;;;4953734;29;20485;-73
2021/03/31 08:24:52;;;;;;;18.17;16.67;;;17.00;87.70;;;;;;4953733;29;20986;-71
2021/03/31 08:27:19;;;;;;;19.33;17.30;;;17.20;87.50;;;;;;4953766;29;20445;-72
2021/03/31 08:29:48;;;;;;;19.30;17.80;;;17.90;85.60;;;;;;4953799;29;20495;-73
2021/03/31 08:32:16;;;;;;;19.00;17.53;;;18.20;83.70;;;;;;4967915;28;20550;-73
2021/03/31 08:34:44;;;;;;;19.13;17.83;;;18.00;83.10;;;;;;4973120;28;20458;-73
2021/03/31 08:37:27;;;;;;;19.97;18.30;;;17.90;83.60;;;;;;4972834;28;20487;-72
2021/03/31 08:39:59;;;;;;;20.10;18.40;;;18.00;83.50;;;;;;4970440;28;20465;-73
2021/03/31 08:42:26;;;;;;;18.83;17.53;;;18.30;82.20;;;;;;4972656;28;20827;-73
2021/03/31 08:44:56;;;;;;;19.53;17.90;;;18.20;81.70;;;;;;4962348;28;20440;-73
2021/03/31 08:47:25;;;;;;;19.30;17.73;;;18.30;81.80;;;;;;4963812;28;20448;-73
2021/03/31 08:49:58;;;;;;;20.27;17.87;;;18.40;81.70;;;;;;4964286;28;20455;-73
2021/03/31 08:52:25;;;;;;;18.60;17.40;;;19.30;79.80;;;;;;4964264;28;20472;-73
2021/03/31 08:54:52;;;;;;;18.73;17.50;;;19.40;77.90;;;;;;4971602;28;21085;-73
2021/03/31 08:57:21;;;;;;;21.03;19.37;;;19.20;77.80;;;;;;4961117;28;20472;-73
2021/03/31 08:59:49;;;;;;;20.03;18.53;;;19.60;77.90;;;;;;4953331;29;20448;-72
2021/03/31 09:02:19;;;;;;;20.50;19.00;;;19.90;76.30;;;;;;4952980;29;20452;-72
2021/03/31 09:04:46;;;;;;;22.10;20.10;;;20.30;75.90;;;;;;4973337;28;20452;-72
2021/03/31 09:07:14;;;;;;;22.20;20.17;;;20.70;73.30;;;;;;4977005;28;20497;-72
2021/03/31 09:09:42;;;;;;;22.53;20.70;;;20.50;73.60;;;;;;4992094;28;20451;-73
2021/03/31 09:12:11;;;;;;;22.90;20.50;;;20.60;73.70;;;;;;4991856;28;20497;-73
2021/03/31 09:14:39;;;;;;;21.10;19.20;;;20.50;73.60;;;;;;4991669;28;20949;-71
2021/03/31 09:17:08;;;;;;;21.30;19.60;;;21.20;72.70;;;;;;4991020;28;20864;-74
2021/03/31 09:19:37;;;;;;;20.57;18.97;;;21.30;70.60;;;;;;4977487;28;20847;-73
2021/03/31 09:22:08;;;;;;;20.17;18.77;;;21.40;70.20;;;;;;4972038;28;20462;-73
2021/03/31 09:24:35;;;;;;;21.83;20.10;;;21.10;70.50;;;;;;4971848;28;20775;-70
2021/03/31 09:27:04;;;;;;;23.23;21.23;;;21.40;70.50;;;;;;4971526;28;20454;-73
2021/03/31 09:29:31;;;;;;;22.97;21.33;;;22.10;68.40;;;;;;4971871;28;21033;-73
2021/03/31 09:32:07;;;;;;;21.63;20.03;;;22.60;67.10;;;;;;4970185;28;20494;-70
2021/03/31 09:34:33;;;;;;;21.10;19.63;;;23.00;65.30;;;;;;4970305;28;20614;-73
2021/03/31 09:37:04;;;;;;;21.20;19.40;;;23.00;64.60;;;;;;4971640;28;20949;-73
2021/03/31 09:39:49;;;;;;;21.53;19.53;;;23.10;64.00;;;;;;4971962;28;20859;-73
2021/03/31 09:42:20;;;;;;;22.87;21.10;;;23.10;63.50;;;;;;4971839;28;20447;-70
2021/03/31 09:44:48;;;;;;;22.10;20.00;;;23.20;62.80;;;;;;4970792;28;20455;-70
2021/03/31 09:47:15;;;;;;;21.03;19.23;;;23.40;62.30;;;;;;4971452;28;20460;-73
2021/03/31 09:49:44;;;;;;;20.73;19.37;;;24.10;60.80;;;;;;4970718;28;20464;-73
2021/03/31 09:52:11;;;;;;;21.80;19.90;;;25.00;58.10;;;;;;4971699;28;20658;-73
2021/03/31 09:54:37;;;;;;;22.63;20.97;;;24.70;57.60;;;;;;4971362;28;20510;-73
2021/03/31 09:57:05;;;;;;;22.07;20.23;;;24.40;57.80;;;;;;4971331;28;20946;-70
2021/03/31 09:59:32;;;;;;;20.37;18.87;;;24.30;58.10;;;;;;4971224;28;20780;-70
2021/03/31 10:02:00;;;;;;;23.20;21.20;;;24.90;56.80;;;;;;4971707;28;20455;-70
2021/03/31 10:04:26;;;;;;;22.50;20.63;;;25.00;56.20;;;;;;4971709;28;20551;-71
2021/03/31 10:07:13;;;;;;;21.70;20.20;;;25.20;55.70;;;;;;4971341;28;20444;-70
2021/03/31 10:09:41;;;;;;;21.03;19.13;;;25.50;54.60;;;;;;4971900;28;20458;-70
2021/03/31 10:12:09;;;;;;;20.77;19.03;;;25.80;53.90;;;;;;4971473;28;20541;-71
2021/03/31 10:14:46;;;;;;;22.97;20.80;;;26.30;52.20;;;;;;4971638;28;20456;-70
2021/03/31 10:17:14;;;;;;;22.97;20.77;;;26.50;51.70;;;;;;4971571;28;20838;-68
2021/03/31 10:19:40;;;;;;;22.73;20.87;;;26.60;51.10;;;;;;4974459;28;20754;-68
2021/03/31 10:22:07;;;;;;;22.80;21.17;;;26.80;50.30;;;;;;4975419;28;20448;-68
2021/03/31 10:24:38;;;;;;;22.47;20.87;;;27.00;49.60;;;;;;4975414;28;20835;-68
2021/03/31 10:27:06;;;;;;;23.00;21.40;;;27.30;48.30;;;;;;4975279;28;20456;-68
2021/03/31 10:29:33;;;;;;;21.33;19.90;;;27.30;47.90;;;;;;4974844;28;20455;-68
2021/03/31 10:32:01;;;;;;;23.13;20.87;;;28.00;46.50;;;;;;4975690;28;20455;-68
2021/03/31 10:34:37;;;;;;;21.73;20.03;;;27.80;46.30;;;;;;4975472;28;20451;-68
2021/03/31 10:37:08;;;;;;;22.17;20.57;;;27.70;46.20;;;;;;4975151;28;20981;-68
2021/03/31 10:48:31;;;;;;;22.23;20.73;;;28.80;41.50;;;;;;4975148;28;20435;-68
2021/03/31 10:51:02;;;;;;;21.87;20.37;;;29.40;41.30;;;;;;4975283;28;20455;-68
2021/03/31 10:53:33;;;;;;;20.67;19.47;;;29.80;40.90;;;;;;4975218;28;20852;-68
2021/03/31 10:56:01;;;;;;;22.30;20.70;;;30.30;39.50;;;;;;4975066;28;20459;-68
2021/03/31 10:58:49;;;;;;;23.97;21.97;;;30.80;38.10;;;;;;4975138;28;20455;-68
2021/03/31 11:01:16;;;;;;;22.50;21.10;;;31.20;37.70;;;;;;4972292;28;20463;-68
2021/03/31 11:03:42;;;;;;;22.37;21.00;;;32.10;35.80;;;;;;4974009;28;21006;-69
2021/03/31 11:06:09;;;;;;;22.50;20.93;;;33.00;34.70;;;;;;4974621;28;20827;-68
2021/03/31 11:08:35;;;;;;;21.90;20.53;;;33.30;33.30;;;;;;4974549;28;20456;-69
2021/03/31 11:11:01;;;;;;;22.50;21.10;;;33.30;32.30;;;;;;4974402;28;21061;-72
2021/03/31 11:13:28;;;;;;;21.50;20.20;;;34.20;31.40;;;;;;4973967;28;20448;-71
2021/03/31 11:15:55;;;;;;;22.67;21.17;;;34.90;30.00;;;;;;4972967;28;20471;-72
2021/03/31 11:18:35;;;;;;;22.70;21.40;;;35.00;29.60;;;;;;4973433;28;20594;-71
2021/03/31 11:21:22;;;;;;;22.60;21.10;;;35.60;28.90;;;;;;4974031;28;20451;-72
2021/03/31 11:26:33;;;;;;;23.70;21.90;;;36.50;25.90;;;;;;4973814;28;20435;-72
2021/03/31 11:28:59;;;;;;;25.40;23.60;;;36.50;25.90;;;;;;4973733;28;20455;-71
2021/03/31 11:31:25;;;;;;;23.27;21.90;;;36.50;25.60;;;;;;4973426;28;20455;-70
2021/03/31 11:33:53;;;;;;;24.47;22.77;;;36.30;25.70;;;;;;4974046;28;20455;-72
2021/03/31 11:36:20;;;;;;;25.87;24.30;;;37.00;25.30;;;;;;4973892;28;20935;-72
2021/03/31 11:38:46;;;;;;;23.50;22.07;;;36.50;24.90;;;;;;4973832;28;20459;-71
2021/03/31 11:41:12;;;;;;;24.00;22.50;;;37.10;24.70;;;;;;4973347;28;21087;-71
2021/03/31 11:43:39;;;;;;;26.40;24.70;;;36.90;24.80;;;;;;4973467;28;20913;-72
2021/03/31 11:46:05;;;;;;;22.90;21.40;;;37.00;24.10;;;;;;4973533;28;20448;-71
2021/03/31 11:48:32;;;;;;;23.70;22.20;;;36.40;23.80;;;;;;4973696;28;20506;-71
2021/03/31 11:50:59;;;;;;;22.67;21.33;;;35.00;24.50;;;;;;4973720;28;20872;-71
2021/03/31 11:53:29;;;;;;;23.50;22.00;;;35.10;24.40;;;;;;4973526;28;20444;-71
2021/03/31 11:55:55;;;;;;;26.07;24.43;;;35.10;24.10;;;;;;4973282;28;20498;-71
2021/03/31 11:58:21;;;;;;;25.90;24.00;;;33.50;25.60;;;;;;4973370;28;20848;-71
2021/03/31 12:00:48;;;;;;;27.33;25.07;;;32.70;26.70;;;;;;4973248;28;20498;-71
2021/03/31 12:03:14;;;;;;;25.00;23.27;;;33.00;26.60;;;;;;4973267;28;20499;-71
2021/03/31 12:05:40;;;;;;;25.37;23.77;;;33.10;26.20;;;;;;4973090;28;20552;-71
2021/03/31 12:08:07;;;;;;;26.13;24.00;;;33.50;25.80;;;;;;4973038;28;20483;-71
2021/03/31 12:10:33;;;;;;;25.20;23.33;;;34.20;25.50;;;;;;4973168;28;20456;-71
2021/03/31 12:13:00;;;;;;;28.43;26.43;;;34.50;25.10;;;;;;4973154;28;20519;-71
2021/03/31 12:15:26;;;;;;;26.30;24.30;;;35.60;24.40;;;;;;4973138;28;20545;-71
2021/03/31 12:17:52;;;;;;;24.53;23.00;;;34.80;24.90;;;;;;4972735;28;20578;-71
2021/03/31 12:20:19;;;;;;;26.10;24.03;;;34.90;25.10;;;;;;4973029;28;20835;-71
2021/03/31 12:22:46;;;;;;;25.97;24.00;;;34.80;25.20;;;;;;4972682;28;20495;-71
2021/03/31 12:25:14;;;;;;;23.43;21.93;;;34.80;25.10;;;;;;4973000;28;20514;-71
2021/03/31 12:27:42;;;;;;;23.80;22.40;;;35.30;24.80;;;;;;4973106;28;20817;-71
2021/03/31 12:30:11;;;;;;;23.37;21.87;;;35.30;24.60;;;;;;4972727;28;20463;-71
2021/03/31 12:32:37;;;;;;;23.40;21.83;;;35.50;24.40;;;;;;4972652;28;21012;-71
2021/03/31 12:35:05;;;;;;;24.60;23.03;;;35.80;23.30;;;;;;4972474;28;20460;-71
2021/03/31 12:37:31;;;;;;;23.00;21.70;;;35.60;23.10;;;;;;4972721;28;20443;-71
2021/03/31 12:39:58;;;;;;;23.23;21.90;;;35.30;22.80;;;;;;4972673;28;20455;-71
2021/03/31 12:42:26;;;;;;;23.57;21.87;;;35.20;22.60;;;;;;4971382;28;20814;-71
2021/03/31 12:44:52;;;;;;;23.03;21.43;;;35.00;22.90;;;;;;4972133;28;20761;-71
2021/03/31 12:47:19;;;;;;;22.00;20.60;;;34.30;23.80;;;;;;4972021;28;20947;-71
2021/03/31 12:49:47;;;;;;;22.70;21.40;;;34.70;23.60;;;;;;4972515;28;20993;-71
2021/03/31 12:52:15;;;;;;;23.40;22.00;;;34.60;23.00;;;;;;4972646;28;20456;-71